sensor_id;sensor_type;location;lat;lon;timestamp;P1;durP1;ratioP1;P2;durP2;ratioP2
51828;SDS011;37881;48.024;8.774;2023-06-10T00:01:43;10.93;;;8.33;;
51828;SDS011;37881;48.024;8.774;2023-06-10T00:04:16;11.65;;;8.95;;
51828;SDS011;37881;48.024;8.774;2023-06-10T00:06:43;15.57;;;10.90;;
51828;SDS011;37881;48.024;8.774;2023-06-10T00:09:10;12.32;;;9.30;;
51828;SDS011;37881;48.024;8.774;2023-06-10T00:11:37;11.70;;;9.50;;
51828;SDS011;37881;48.024;8.774;2023-06-10T00:14:04;12.10;;;9.57;;
51828;SDS011;37881;48.024;8.774;2023-06-10T00:16:31;10.73;;;8.82;;
51828;SDS011;37881;48.024;8.774;2023-06-10T00:18:59;11.90;;;8.93;;
51828;SDS011;37881;48.024;8.774;2023-06-10T00:21:28;11.68;;;9.43;;
51828;SDS011;37881;48.024;8.774;2023-06-10T00:23:54;13.32;;;9.88;;
51828;SDS011;37881;48.024;8.774;2023-06-10T00:26:22;12.53;;;9.03;;
51828;SDS011;37881;48.024;8.774;2023-06-10T00:28:49;12.63;;;9.52;;
51828;SDS011;37881;48.024;8.774;2023-06-10T00:31:16;12.48;;;9.40;;
51828;SDS011;37881;48.024;8.774;2023-06-10T00:33:43;11.20;;;9.00;;
51828;SDS011;37881;48.024;8.774;2023-06-10T00:36:10;11.15;;;9.00;;
51828;SDS011;37881;48.024;8.774;2023-06-10T00:38:37;11.43;;;9.67;;
51828;SDS011;37881;48.024;8.774;2023-06-10T00:41:03;12.13;;;9.38;;
51828;SDS011;37881;48.024;8.774;2023-06-10T00:43:30;11.90;;;9.80;;
51828;SDS011;37881;48.024;8.774;2023-06-10T00:45:57;11.63;;;9.70;;
51828;SDS011;37881;48.024;8.774;2023-06-10T00:48:24;14.43;;;9.63;;
51828;SDS011;37881;48.024;8.774;2023-06-10T00:50:51;13.90;;;9.70;;
51828;SDS011;37881;48.024;8.774;2023-06-10T00:53:18;12.38;;;9.38;;
51828;SDS011;37881;48.024;8.774;2023-06-10T00:55:47;12.98;;;9.80;;
51828;SDS011;37881;48.024;8.774;2023-06-10T00:58:14;12.50;;;10.10;;
51828;SDS011;37881;48.024;8.774;2023-06-10T01:00:42;12.55;;;10.13;;
51828;SDS011;37881;48.024;8.774;2023-06-10T01:03:08;12.80;;;9.70;;
51828;SDS011;37881;48.024;8.774;2023-06-10T01:05:36;14.43;;;10.43;;
51828;SDS011;37881;48.024;8.774;2023-06-10T01:10:34;14.73;;;10.20;;
51828;SDS011;37881;48.024;8.774;2023-06-10T01:13:13;13.05;;;10.18;;
51828;SDS011;37881;48.024;8.774;2023-06-10T01:15:41;11.90;;;9.50;;
51828;SDS011;37881;48.024;8.774;2023-06-10T01:18:09;12.43;;;10.00;;
51828;SDS011;37881;48.024;8.774;2023-06-10T01:20:42;12.30;;;10.23;;
51828;SDS011;37881;48.024;8.774;2023-06-10T01:23:10;13.32;;;10.20;;
51828;SDS011;37881;48.024;8.774;2023-06-10T01:25:38;13.15;;;10.10;;
51828;SDS011;37881;48.024;8.774;2023-06-10T01:30:50;12.57;;;10.30;;
51828;SDS011;37881;48.024;8.774;2023-06-10T01:33:19;12.15;;;10.07;;
51828;SDS011;37881;48.024;8.774;2023-06-10T01:35:53;13.55;;;10.57;;
51828;SDS011;37881;48.024;8.774;2023-06-10T01:38:21;13.82;;;10.60;;
51828;SDS011;37881;48.024;8.774;2023-06-10T01:40:49;12.80;;;10.23;;
51828;SDS011;37881;48.024;8.774;2023-06-10T01:43:19;13.80;;;10.50;;
51828;SDS011;37881;48.024;8.774;2023-06-10T01:45:47;13.88;;;10.98;;
51828;SDS011;37881;48.024;8.774;2023-06-10T01:48:14;13.60;;;10.05;;
51828;SDS011;37881;48.024;8.774;2023-06-10T01:50:40;12.77;;;10.32;;
51828;SDS011;37881;48.024;8.774;2023-06-10T01:53:07;13.67;;;10.33;;
51828;SDS011;37881;48.024;8.774;2023-06-10T01:55:34;12.60;;;10.13;;
51828;SDS011;37881;48.024;8.774;2023-06-10T01:58:00;14.57;;;10.40;;
51828;SDS011;37881;48.024;8.774;2023-06-10T02:00:27;12.13;;;10.18;;
51828;SDS011;37881;48.024;8.774;2023-06-10T02:02:54;12.80;;;9.90;;
51828;SDS011;37881;48.024;8.774;2023-06-10T02:05:21;13.67;;;10.57;;
51828;SDS011;37881;48.024;8.774;2023-06-10T02:07:49;12.77;;;9.80;;
51828;SDS011;37881;48.024;8.774;2023-06-10T02:10:16;14.00;;;10.38;;
51828;SDS011;37881;48.024;8.774;2023-06-10T02:12:43;14.35;;;10.52;;
51828;SDS011;37881;48.024;8.774;2023-06-10T02:15:09;12.90;;;10.05;;
51828;SDS011;37881;48.024;8.774;2023-06-10T02:17:36;14.07;;;10.47;;
51828;SDS011;37881;48.024;8.774;2023-06-10T02:20:04;13.35;;;10.13;;
51828;SDS011;37881;48.024;8.774;2023-06-10T02:22:33;13.43;;;10.63;;
51828;SDS011;37881;48.024;8.774;2023-06-10T02:25:00;13.65;;;10.10;;
51828;SDS011;37881;48.024;8.774;2023-06-10T02:27:27;12.88;;;10.15;;
51828;SDS011;37881;48.024;8.774;2023-06-10T02:29:53;12.47;;;10.20;;
51828;SDS011;37881;48.024;8.774;2023-06-10T02:32:20;13.88;;;10.30;;
51828;SDS011;37881;48.024;8.774;2023-06-10T02:34:47;14.90;;;9.90;;
51828;SDS011;37881;48.024;8.774;2023-06-10T02:37:15;15.93;;;10.43;;
51828;SDS011;37881;48.024;8.774;2023-06-10T02:39:42;14.30;;;10.13;;
51828;SDS011;37881;48.024;8.774;2023-06-10T02:42:09;60.40;;;40.37;;
51828;SDS011;37881;48.024;8.774;2023-06-10T02:44:37;25.95;;;18.63;;
51828;SDS011;37881;48.024;8.774;2023-06-10T02:47:04;15.88;;;12.20;;
51828;SDS011;37881;48.024;8.774;2023-06-10T02:49:31;16.20;;;10.80;;
51828;SDS011;37881;48.024;8.774;2023-06-10T02:51:58;13.63;;;10.65;;
51828;SDS011;37881;48.024;8.774;2023-06-10T02:54:25;14.33;;;10.80;;
51828;SDS011;37881;48.024;8.774;2023-06-10T02:56:52;13.43;;;10.10;;
51828;SDS011;37881;48.024;8.774;2023-06-10T02:59:19;13.98;;;10.43;;
51828;SDS011;37881;48.024;8.774;2023-06-10T03:01:46;13.25;;;9.98;;
51828;SDS011;37881;48.024;8.774;2023-06-10T03:04:13;13.27;;;10.25;;
51828;SDS011;37881;48.024;8.774;2023-06-10T03:06:41;13.20;;;10.43;;
51828;SDS011;37881;48.024;8.774;2023-06-10T03:09:09;14.30;;;10.93;;
51828;SDS011;37881;48.024;8.774;2023-06-10T03:11:36;13.45;;;10.65;;
51828;SDS011;37881;48.024;8.774;2023-06-10T03:14:03;15.30;;;10.82;;
51828;SDS011;37881;48.024;8.774;2023-06-10T03:16:29;14.00;;;10.20;;
51828;SDS011;37881;48.024;8.774;2023-06-10T03:18:57;15.50;;;11.00;;
51828;SDS011;37881;48.024;8.774;2023-06-10T03:21:24;14.68;;;10.80;;
51828;SDS011;37881;48.024;8.774;2023-06-10T03:23:52;13.77;;;10.80;;
51828;SDS011;37881;48.024;8.774;2023-06-10T03:26:18;15.57;;;10.93;;
51828;SDS011;37881;48.024;8.774;2023-06-10T03:28:48;13.80;;;10.43;;
51828;SDS011;37881;48.024;8.774;2023-06-10T03:31:15;16.63;;;10.63;;
51828;SDS011;37881;48.024;8.774;2023-06-10T03:33:43;13.10;;;10.45;;
51828;SDS011;37881;48.024;8.774;2023-06-10T03:36:10;15.60;;;10.80;;
51828;SDS011;37881;48.024;8.774;2023-06-10T03:38:37;12.95;;;10.65;;
51828;SDS011;37881;48.024;8.774;2023-06-10T03:41:04;15.15;;;10.68;;
51828;SDS011;37881;48.024;8.774;2023-06-10T03:43:30;14.57;;;10.57;;
51828;SDS011;37881;48.024;8.774;2023-06-10T03:45:57;12.93;;;10.48;;
51828;SDS011;37881;48.024;8.774;2023-06-10T03:48:24;13.82;;;10.40;;
51828;SDS011;37881;48.024;8.774;2023-06-10T03:50:51;13.57;;;10.40;;
51828;SDS011;37881;48.024;8.774;2023-06-10T03:53:18;14.75;;;11.35;;
51828;SDS011;37881;48.024;8.774;2023-06-10T03:55:45;13.53;;;10.00;;
51828;SDS011;37881;48.024;8.774;2023-06-10T03:58:12;43.35;;;30.02;;
51828;SDS011;37881;48.024;8.774;2023-06-10T04:00:42;25.10;;;18.27;;
51828;SDS011;37881;48.024;8.774;2023-06-10T04:03:08;17.98;;;12.13;;
51828;SDS011;37881;48.024;8.774;2023-06-10T04:05:35;17.60;;;11.50;;
51828;SDS011;37881;48.024;8.774;2023-06-10T04:08:02;14.57;;;10.50;;
51828;SDS011;37881;48.024;8.774;2023-06-10T04:10:29;13.38;;;10.82;;
51828;SDS011;37881;48.024;8.774;2023-06-10T04:12:56;15.13;;;10.80;;
51828;SDS011;37881;48.024;8.774;2023-06-10T04:15:23;14.05;;;10.93;;
51828;SDS011;37881;48.024;8.774;2023-06-10T04:17:49;14.30;;;11.02;;
51828;SDS011;37881;48.024;8.774;2023-06-10T04:20:16;14.80;;;11.20;;
51828;SDS011;37881;48.024;8.774;2023-06-10T04:22:43;14.38;;;10.98;;
51828;SDS011;37881;48.024;8.774;2023-06-10T04:25:10;15.00;;;12.18;;
51828;SDS011;37881;48.024;8.774;2023-06-10T04:27:37;15.52;;;11.07;;
51828;SDS011;37881;48.024;8.774;2023-06-10T04:30:04;13.63;;;11.27;;
51828;SDS011;37881;48.024;8.774;2023-06-10T04:32:31;13.03;;;10.60;;
51828;SDS011;37881;48.024;8.774;2023-06-10T04:34:59;13.02;;;10.48;;
51828;SDS011;37881;48.024;8.774;2023-06-10T04:37:26;12.55;;;10.60;;
51828;SDS011;37881;48.024;8.774;2023-06-10T04:39:55;14.27;;;10.40;;
51828;SDS011;37881;48.024;8.774;2023-06-10T04:42:23;14.23;;;10.75;;
51828;SDS011;37881;48.024;8.774;2023-06-10T04:44:50;13.73;;;10.50;;
51828;SDS011;37881;48.024;8.774;2023-06-10T04:47:17;14.68;;;11.60;;
51828;SDS011;37881;48.024;8.774;2023-06-10T04:49:43;14.05;;;11.35;;
51828;SDS011;37881;48.024;8.774;2023-06-10T04:52:10;22.98;;;17.17;;
51828;SDS011;37881;48.024;8.774;2023-06-10T04:54:37;16.45;;;12.23;;
51828;SDS011;37881;48.024;8.774;2023-06-10T04:57:05;13.93;;;11.00;;
51828;SDS011;37881;48.024;8.774;2023-06-10T04:59:34;13.57;;;11.23;;
51828;SDS011;37881;48.024;8.774;2023-06-10T05:02:04;14.98;;;11.77;;
51828;SDS011;37881;48.024;8.774;2023-06-10T05:04:31;14.32;;;11.45;;
51828;SDS011;37881;48.024;8.774;2023-06-10T05:06:58;14.30;;;11.70;;
51828;SDS011;37881;48.024;8.774;2023-06-10T05:09:25;14.37;;;11.40;;
51828;SDS011;37881;48.024;8.774;2023-06-10T05:11:52;15.30;;;11.30;;
51828;SDS011;37881;48.024;8.774;2023-06-10T05:14:22;14.65;;;11.32;;
51828;SDS011;37881;48.024;8.774;2023-06-10T05:16:49;17.10;;;11.75;;
51828;SDS011;37881;48.024;8.774;2023-06-10T05:19:15;14.10;;;11.55;;
51828;SDS011;37881;48.024;8.774;2023-06-10T05:21:43;13.37;;;11.07;;
51828;SDS011;37881;48.024;8.774;2023-06-10T05:24:11;12.60;;;10.82;;
51828;SDS011;37881;48.024;8.774;2023-06-10T05:26:38;14.25;;;11.75;;
51828;SDS011;37881;48.024;8.774;2023-06-10T05:29:05;13.98;;;11.57;;
51828;SDS011;37881;48.024;8.774;2023-06-10T05:31:32;14.20;;;11.95;;
51828;SDS011;37881;48.024;8.774;2023-06-10T05:33:59;12.33;;;10.97;;
51828;SDS011;37881;48.024;8.774;2023-06-10T05:36:25;14.73;;;11.38;;
51828;SDS011;37881;48.024;8.774;2023-06-10T05:38:53;12.57;;;11.27;;
51828;SDS011;37881;48.024;8.774;2023-06-10T05:41:20;14.18;;;11.57;;
51828;SDS011;37881;48.024;8.774;2023-06-10T05:43:48;13.77;;;12.27;;
51828;SDS011;37881;48.024;8.774;2023-06-10T05:46:15;13.33;;;11.93;;
51828;SDS011;37881;48.024;8.774;2023-06-10T05:48:42;12.77;;;11.40;;
51828;SDS011;37881;48.024;8.774;2023-06-10T05:51:08;13.40;;;12.10;;
51828;SDS011;37881;48.024;8.774;2023-06-10T05:53:36;12.68;;;11.38;;
51828;SDS011;37881;48.024;8.774;2023-06-10T05:56:04;13.38;;;11.98;;
51828;SDS011;37881;48.024;8.774;2023-06-10T05:58:31;12.33;;;11.03;;
51828;SDS011;37881;48.024;8.774;2023-06-10T06:00:58;13.90;;;12.50;;
51828;SDS011;37881;48.024;8.774;2023-06-10T06:03:25;14.07;;;12.73;;
51828;SDS011;37881;48.024;8.774;2023-06-10T06:05:52;13.77;;;12.20;;
51828;SDS011;37881;48.024;8.774;2023-06-10T06:08:18;13.98;;;12.57;;
51828;SDS011;37881;48.024;8.774;2023-06-10T06:10:45;12.77;;;11.53;;
51828;SDS011;37881;48.024;8.774;2023-06-10T06:13:13;19.60;;;11.80;;
51828;SDS011;37881;48.024;8.774;2023-06-10T06:15:40;13.40;;;12.00;;
51828;SDS011;37881;48.024;8.774;2023-06-10T06:18:07;12.38;;;11.05;;
51828;SDS011;37881;48.024;8.774;2023-06-10T06:20:33;13.75;;;12.38;;
51828;SDS011;37881;48.024;8.774;2023-06-10T06:23:00;13.60;;;12.17;;
51828;SDS011;37881;48.024;8.774;2023-06-10T06:25:27;12.77;;;11.10;;
51828;SDS011;37881;48.024;8.774;2023-06-10T06:27:53;14.90;;;11.18;;
51828;SDS011;37881;48.024;8.774;2023-06-10T06:30:20;13.77;;;12.35;;
51828;SDS011;37881;48.024;8.774;2023-06-10T06:32:47;12.50;;;10.93;;
51828;SDS011;37881;48.024;8.774;2023-06-10T06:35:14;11.83;;;10.70;;
51828;SDS011;37881;48.024;8.774;2023-06-10T06:37:40;12.93;;;11.63;;
51828;SDS011;37881;48.024;8.774;2023-06-10T06:40:07;12.80;;;11.50;;
51828;SDS011;37881;48.024;8.774;2023-06-10T06:42:34;12.90;;;11.60;;
51828;SDS011;37881;48.024;8.774;2023-06-10T06:45:01;12.25;;;10.95;;
51828;SDS011;37881;48.024;8.774;2023-06-10T06:47:28;12.87;;;11.67;;
51828;SDS011;37881;48.024;8.774;2023-06-10T06:49:55;13.85;;;11.90;;
51828;SDS011;37881;48.024;8.774;2023-06-10T06:52:22;12.65;;;11.32;;
51828;SDS011;37881;48.024;8.774;2023-06-10T06:54:49;12.55;;;11.35;;
51828;SDS011;37881;48.024;8.774;2023-06-10T06:57:15;12.38;;;11.18;;
51828;SDS011;37881;48.024;8.774;2023-06-10T06:59:42;13.63;;;11.30;;
51828;SDS011;37881;48.024;8.774;2023-06-10T07:02:09;10.88;;;9.68;;
51828;SDS011;37881;48.024;8.774;2023-06-10T07:04:36;11.40;;;10.20;;
51828;SDS011;37881;48.024;8.774;2023-06-10T07:07:04;12.18;;;10.00;;
51828;SDS011;37881;48.024;8.774;2023-06-10T07:09:31;11.98;;;10.65;;
51828;SDS011;37881;48.024;8.774;2023-06-10T07:11:58;11.80;;;10.00;;
51828;SDS011;37881;48.024;8.774;2023-06-10T07:14:24;12.02;;;10.80;;
51828;SDS011;37881;48.024;8.774;2023-06-10T07:16:51;10.23;;;9.23;;
51828;SDS011;37881;48.024;8.774;2023-06-10T07:19:18;9.93;;;8.10;;
51828;SDS011;37881;48.024;8.774;2023-06-10T07:21:45;10.27;;;8.57;;
51828;SDS011;37881;48.024;8.774;2023-06-10T07:24:12;10.60;;;9.07;;
51828;SDS011;37881;48.024;8.774;2023-06-10T07:26:38;9.18;;;8.27;;
51828;SDS011;37881;48.024;8.774;2023-06-10T07:29:05;8.70;;;7.80;;
51828;SDS011;37881;48.024;8.774;2023-06-10T07:31:32;8.13;;;7.32;;
51828;SDS011;37881;48.024;8.774;2023-06-10T07:33:59;8.38;;;7.13;;
51828;SDS011;37881;48.024;8.774;2023-06-10T07:36:26;8.33;;;6.77;;
51828;SDS011;37881;48.024;8.774;2023-06-10T07:38:55;7.88;;;6.90;;
51828;SDS011;37881;48.024;8.774;2023-06-10T07:41:24;6.93;;;6.22;;
51828;SDS011;37881;48.024;8.774;2023-06-10T07:43:54;6.90;;;6.20;;
51828;SDS011;37881;48.024;8.774;2023-06-10T07:46:22;7.25;;;6.55;;
51828;SDS011;37881;48.024;8.774;2023-06-10T07:48:50;8.33;;;7.40;;
51828;SDS011;37881;48.024;8.774;2023-06-10T07:51:18;7.32;;;6.63;;
51828;SDS011;37881;48.024;8.774;2023-06-10T07:53:45;8.10;;;7.30;;
51828;SDS011;37881;48.024;8.774;2023-06-10T07:56:11;7.75;;;6.95;;
51828;SDS011;37881;48.024;8.774;2023-06-10T07:58:38;8.13;;;7.32;;
51828;SDS011;37881;48.024;8.774;2023-06-10T08:01:05;7.83;;;7.07;;
51828;SDS011;37881;48.024;8.774;2023-06-10T08:03:32;7.10;;;6.40;;
51828;SDS011;37881;48.024;8.774;2023-06-10T08:05:59;7.93;;;6.47;;
51828;SDS011;37881;48.024;8.774;2023-06-10T08:08:25;7.70;;;6.88;;
51828;SDS011;37881;48.024;8.774;2023-06-10T08:10:52;7.30;;;6.57;;
51828;SDS011;37881;48.024;8.774;2023-06-10T08:13:19;7.20;;;6.30;;
51828;SDS011;37881;48.024;8.774;2023-06-10T08:15:46;7.28;;;6.57;;
51828;SDS011;37881;48.024;8.774;2023-06-10T08:18:14;8.60;;;7.00;;
51828;SDS011;37881;48.024;8.774;2023-06-10T08:20:40;8.20;;;6.95;;
51828;SDS011;37881;48.024;8.774;2023-06-10T08:23:07;7.32;;;6.60;;
51828;SDS011;37881;48.024;8.774;2023-06-10T08:25:34;7.27;;;6.57;;
51828;SDS011;37881;48.024;8.774;2023-06-10T08:28:01;7.40;;;6.70;;
51828;SDS011;37881;48.024;8.774;2023-06-10T08:30:28;7.45;;;6.63;;
51828;SDS011;37881;48.024;8.774;2023-06-10T08:32:55;8.68;;;6.97;;
51828;SDS011;37881;48.024;8.774;2023-06-10T08:35:22;7.18;;;6.35;;
51828;SDS011;37881;48.024;8.774;2023-06-10T08:37:48;7.20;;;6.40;;
51828;SDS011;37881;48.024;8.774;2023-06-10T08:40:15;7.50;;;6.57;;
51828;SDS011;37881;48.024;8.774;2023-06-10T08:42:53;8.30;;;6.72;;
51828;SDS011;37881;48.024;8.774;2023-06-10T08:45:27;7.82;;;6.70;;
51828;SDS011;37881;48.024;8.774;2023-06-10T08:47:57;7.30;;;6.60;;
51828;SDS011;37881;48.024;8.774;2023-06-10T08:50:26;7.10;;;6.40;;
51828;SDS011;37881;48.024;8.774;2023-06-10T08:52:57;9.02;;;6.20;;
51828;SDS011;37881;48.024;8.774;2023-06-10T08:55:37;7.60;;;6.70;;
51828;SDS011;37881;48.024;8.774;2023-06-10T08:58:08;7.68;;;6.85;;
51828;SDS011;37881;48.024;8.774;2023-06-10T09:00:35;7.88;;;6.93;;
51828;SDS011;37881;48.024;8.774;2023-06-10T09:03:04;7.00;;;6.30;;
51828;SDS011;37881;48.024;8.774;2023-06-10T09:05:34;8.05;;;6.28;;
51828;SDS011;37881;48.024;8.774;2023-06-10T09:08:03;7.38;;;6.47;;
51828;SDS011;37881;48.024;8.774;2023-06-10T09:10:32;7.03;;;6.32;;
51828;SDS011;37881;48.024;8.774;2023-06-10T09:12:59;8.55;;;6.40;;
51828;SDS011;37881;48.024;8.774;2023-06-10T09:15:25;7.70;;;6.60;;
51828;SDS011;37881;48.024;8.774;2023-06-10T09:17:53;7.85;;;6.60;;
51828;SDS011;37881;48.024;8.774;2023-06-10T09:20:20;7.65;;;6.60;;
51828;SDS011;37881;48.024;8.774;2023-06-10T09:22:46;7.68;;;6.80;;
51828;SDS011;37881;48.024;8.774;2023-06-10T09:25:13;7.30;;;6.60;;
51828;SDS011;37881;48.024;8.774;2023-06-10T09:27:44;7.33;;;6.63;;
51828;SDS011;37881;48.024;8.774;2023-06-10T09:30:29;6.90;;;6.20;;
51828;SDS011;37881;48.024;8.774;2023-06-10T09:32:59;7.70;;;6.00;;
51828;SDS011;37881;48.024;8.774;2023-06-10T09:35:28;7.18;;;6.22;;
51828;SDS011;37881;48.024;8.774;2023-06-10T09:37:57;7.68;;;6.82;;
51828;SDS011;37881;48.024;8.774;2023-06-10T09:40:25;9.33;;;6.37;;
51828;SDS011;37881;48.024;8.774;2023-06-10T09:45:23;7.65;;;6.72;;
51828;SDS011;37881;48.024;8.774;2023-06-10T09:47:53;7.68;;;6.70;;
51828;SDS011;37881;48.024;8.774;2023-06-10T09:50:20;10.35;;;7.57;;
51828;SDS011;37881;48.024;8.774;2023-06-10T09:52:47;7.80;;;7.00;;
51828;SDS011;37881;48.024;8.774;2023-06-10T09:55:14;9.73;;;7.68;;
51828;SDS011;37881;48.024;8.774;2023-06-10T09:57:41;15.55;;;7.20;;
51828;SDS011;37881;48.024;8.774;2023-06-10T10:00:11;12.20;;;7.82;;
51828;SDS011;37881;48.024;8.774;2023-06-10T10:02:45;9.25;;;7.65;;
51828;SDS011;37881;48.024;8.774;2023-06-10T10:05:19;8.20;;;7.30;;
51828;SDS011;37881;48.024;8.774;2023-06-10T10:07:48;7.95;;;7.15;;
51828;SDS011;37881;48.024;8.774;2023-06-10T10:10:16;9.07;;;7.70;;
51828;SDS011;37881;48.024;8.774;2023-06-10T10:12:45;9.07;;;7.53;;
51828;SDS011;37881;48.024;8.774;2023-06-10T10:15:13;15.93;;;14.38;;
51828;SDS011;37881;48.024;8.774;2023-06-10T10:17:44;8.23;;;6.77;;
51828;SDS011;37881;48.024;8.774;2023-06-10T10:20:20;9.60;;;7.78;;
51828;SDS011;37881;48.024;8.774;2023-06-10T10:22:51;10.10;;;7.80;;
51828;SDS011;37881;48.024;8.774;2023-06-10T10:25:28;9.00;;;8.10;;
51828;SDS011;37881;48.024;8.774;2023-06-10T10:28:11;10.02;;;8.30;;
51828;SDS011;37881;48.024;8.774;2023-06-10T10:30:46;9.23;;;7.70;;
51828;SDS011;37881;48.024;8.774;2023-06-10T10:33:16;8.90;;;8.00;;
51828;SDS011;37881;48.024;8.774;2023-06-10T10:35:46;9.00;;;8.07;;
51828;SDS011;37881;48.024;8.774;2023-06-10T10:38:13;8.93;;;7.45;;
51828;SDS011;37881;48.024;8.774;2023-06-10T10:40:40;9.43;;;8.07;;
51828;SDS011;37881;48.024;8.774;2023-06-10T10:43:08;8.43;;;7.30;;
51828;SDS011;37881;48.024;8.774;2023-06-10T10:45:35;8.23;;;7.35;;
51828;SDS011;37881;48.024;8.774;2023-06-10T10:48:05;7.90;;;7.10;;
51828;SDS011;37881;48.024;8.774;2023-06-10T10:50:38;8.40;;;7.00;;
51828;SDS011;37881;48.024;8.774;2023-06-10T10:53:05;7.78;;;6.70;;
51828;SDS011;37881;48.024;8.774;2023-06-10T10:55:32;7.87;;;6.60;;
51828;SDS011;37881;48.024;8.774;2023-06-10T10:58:06;7.65;;;6.88;;
51828;SDS011;37881;48.024;8.774;2023-06-10T11:00:38;7.68;;;6.88;;
51828;SDS011;37881;48.024;8.774;2023-06-10T11:03:15;8.40;;;7.28;;
51828;SDS011;37881;48.024;8.774;2023-06-10T11:05:47;7.82;;;7.00;;
51828;SDS011;37881;48.024;8.774;2023-06-10T11:09:02;8.33;;;7.03;;
51828;SDS011;37881;48.024;8.774;2023-06-10T11:11:25;8.88;;;7.40;;
51828;SDS011;37881;48.024;8.774;2023-06-10T11:16:31;10.82;;;7.13;;
51828;SDS011;37881;48.024;8.774;2023-06-10T11:19:08;7.78;;;6.97;;
51828;SDS011;37881;48.024;8.774;2023-06-10T11:24:26;7.25;;;6.45;;
51828;SDS011;37881;48.024;8.774;2023-06-10T11:26:53;8.20;;;7.07;;
51828;SDS011;37881;48.024;8.774;2023-06-10T11:29:19;7.95;;;6.38;;
51828;SDS011;37881;48.024;8.774;2023-06-10T11:31:50;7.55;;;6.40;;
51828;SDS011;37881;48.024;8.774;2023-06-10T11:34:21;8.07;;;6.50;;
51828;SDS011;37881;48.024;8.774;2023-06-10T11:36:50;8.00;;;5.82;;
51828;SDS011;37881;48.024;8.774;2023-06-10T11:39:18;7.15;;;6.20;;
51828;SDS011;37881;48.024;8.774;2023-06-10T11:41:46;6.32;;;5.40;;
51828;SDS011;37881;48.024;8.774;2023-06-10T11:44:14;6.55;;;5.32;;
51828;SDS011;37881;48.024;8.774;2023-06-10T11:46:47;6.90;;;5.60;;
51828;SDS011;37881;48.024;8.774;2023-06-10T11:49:15;6.65;;;5.38;;
51828;SDS011;37881;48.024;8.774;2023-06-10T11:51:42;5.45;;;4.63;;
51828;SDS011;37881;48.024;8.774;2023-06-10T11:54:16;5.80;;;5.20;;
51828;SDS011;37881;48.024;8.774;2023-06-10T11:56:43;5.40;;;4.00;;
51828;SDS011;37881;48.024;8.774;2023-06-10T11:59:10;5.03;;;3.90;;
51828;SDS011;37881;48.024;8.774;2023-06-10T12:01:37;6.80;;;4.15;;
51828;SDS011;37881;48.024;8.774;2023-06-10T12:04:11;5.18;;;4.57;;
51828;SDS011;37881;48.024;8.774;2023-06-10T12:06:43;5.07;;;4.20;;
51828;SDS011;37881;48.024;8.774;2023-06-10T12:09:15;4.75;;;3.70;;
51828;SDS011;37881;48.024;8.774;2023-06-10T12:11:56;4.10;;;3.40;;
51828;SDS011;37881;48.024;8.774;2023-06-10T12:17:18;5.43;;;4.40;;
51828;SDS011;37881;48.024;8.774;2023-06-10T12:19:44;4.93;;;4.28;;
51828;SDS011;37881;48.024;8.774;2023-06-10T12:22:11;5.40;;;4.18;;
51828;SDS011;37881;48.024;8.774;2023-06-10T12:24:44;5.00;;;3.90;;
51828;SDS011;37881;48.024;8.774;2023-06-10T12:27:12;4.60;;;3.80;;
51828;SDS011;37881;48.024;8.774;2023-06-10T12:29:39;5.10;;;4.15;;
51828;SDS011;37881;48.024;8.774;2023-06-10T12:32:18;4.40;;;3.40;;
51828;SDS011;37881;48.024;8.774;2023-06-10T12:34:46;4.47;;;3.90;;
51828;SDS011;37881;48.024;8.774;2023-06-10T12:37:13;4.90;;;3.77;;
51828;SDS011;37881;48.024;8.774;2023-06-10T12:39:41;4.57;;;3.30;;
51828;SDS011;37881;48.024;8.774;2023-06-10T12:42:09;4.32;;;3.45;;
51828;SDS011;37881;48.024;8.774;2023-06-10T12:44:39;4.07;;;3.20;;
51828;SDS011;37881;48.024;8.774;2023-06-10T12:47:10;4.40;;;3.60;;
51828;SDS011;37881;48.024;8.774;2023-06-10T12:49:40;5.50;;;3.43;;
51828;SDS011;37881;48.024;8.774;2023-06-10T12:52:07;4.25;;;3.58;;
51828;SDS011;37881;48.024;8.774;2023-06-10T12:54:34;5.00;;;3.60;;
51828;SDS011;37881;48.024;8.774;2023-06-10T12:57:01;4.35;;;3.30;;
51828;SDS011;37881;48.024;8.774;2023-06-10T12:59:28;4.35;;;3.15;;
51828;SDS011;37881;48.024;8.774;2023-06-10T13:01:55;3.80;;;3.20;;
51828;SDS011;37881;48.024;8.774;2023-06-10T13:04:22;4.50;;;3.50;;
51828;SDS011;37881;48.024;8.774;2023-06-10T13:06:49;10.75;;;4.13;;
51828;SDS011;37881;48.024;8.774;2023-06-10T13:09:16;6.60;;;3.70;;
51828;SDS011;37881;48.024;8.774;2023-06-10T13:11:43;6.93;;;4.10;;
51828;SDS011;37881;48.024;8.774;2023-06-10T13:14:10;5.70;;;3.93;;
51828;SDS011;37881;48.024;8.774;2023-06-10T13:16:37;5.15;;;3.90;;
51828;SDS011;37881;48.024;8.774;2023-06-10T13:19:05;4.53;;;3.90;;
51828;SDS011;37881;48.024;8.774;2023-06-10T13:21:32;6.97;;;4.30;;
51828;SDS011;37881;48.024;8.774;2023-06-10T13:24:00;5.63;;;4.20;;
51828;SDS011;37881;48.024;8.774;2023-06-10T13:26:27;6.30;;;4.13;;
51828;SDS011;37881;48.024;8.774;2023-06-10T13:28:54;10.65;;;4.20;;
51828;SDS011;37881;48.024;8.774;2023-06-10T13:31:21;5.72;;;4.40;;
51828;SDS011;37881;48.024;8.774;2023-06-10T13:33:48;4.38;;;3.75;;
51828;SDS011;37881;48.024;8.774;2023-06-10T13:36:14;5.53;;;4.22;;
51828;SDS011;37881;48.024;8.774;2023-06-10T13:38:41;5.20;;;4.30;;
51828;SDS011;37881;48.024;8.774;2023-06-10T13:41:08;4.85;;;4.07;;
51828;SDS011;37881;48.024;8.774;2023-06-10T13:43:36;7.28;;;4.30;;
51828;SDS011;37881;48.024;8.774;2023-06-10T13:46:03;5.28;;;4.10;;
51828;SDS011;37881;48.024;8.774;2023-06-10T13:48:30;7.85;;;4.55;;
51828;SDS011;37881;48.024;8.774;2023-06-10T13:50:57;5.40;;;4.00;;
51828;SDS011;37881;48.024;8.774;2023-06-10T13:53:24;4.60;;;3.53;;
51828;SDS011;37881;48.024;8.774;2023-06-10T13:55:51;4.85;;;3.80;;
51828;SDS011;37881;48.024;8.774;2023-06-10T13:58:17;5.18;;;3.88;;
51828;SDS011;37881;48.024;8.774;2023-06-10T14:00:44;5.05;;;3.90;;
51828;SDS011;37881;48.024;8.774;2023-06-10T14:03:12;5.50;;;3.97;;
51828;SDS011;37881;48.024;8.774;2023-06-10T14:05:38;5.90;;;4.45;;
51828;SDS011;37881;48.024;8.774;2023-06-10T14:08:05;5.80;;;4.22;;
51828;SDS011;37881;48.024;8.774;2023-06-10T14:10:32;7.22;;;4.15;;
51828;SDS011;37881;48.024;8.774;2023-06-10T14:12:59;5.10;;;4.10;;
51828;SDS011;37881;48.024;8.774;2023-06-10T14:15:26;5.13;;;4.10;;
51828;SDS011;37881;48.024;8.774;2023-06-10T14:17:53;5.60;;;4.00;;
51828;SDS011;37881;48.024;8.774;2023-06-10T14:20:20;5.03;;;3.92;;
51828;SDS011;37881;48.024;8.774;2023-06-10T14:22:47;4.78;;;3.63;;
51828;SDS011;37881;48.024;8.774;2023-06-10T14:25:13;4.65;;;3.78;;
51828;SDS011;37881;48.024;8.774;2023-06-10T14:27:40;5.17;;;3.67;;
51828;SDS011;37881;48.024;8.774;2023-06-10T14:30:07;5.00;;;3.75;;
51828;SDS011;37881;48.024;8.774;2023-06-10T14:32:34;5.35;;;3.90;;
51828;SDS011;37881;48.024;8.774;2023-06-10T14:35:02;4.50;;;3.80;;
51828;SDS011;37881;48.024;8.774;2023-06-10T14:37:29;5.05;;;4.28;;
51828;SDS011;37881;48.024;8.774;2023-06-10T14:39:56;4.83;;;3.70;;
51828;SDS011;37881;48.024;8.774;2023-06-10T14:42:22;4.85;;;3.90;;
51828;SDS011;37881;48.024;8.774;2023-06-10T14:44:49;5.63;;;4.03;;
51828;SDS011;37881;48.024;8.774;2023-06-10T14:47:17;5.05;;;3.72;;
51828;SDS011;37881;48.024;8.774;2023-06-10T14:49:43;5.43;;;3.92;;
51828;SDS011;37881;48.024;8.774;2023-06-10T14:52:11;5.10;;;4.03;;
51828;SDS011;37881;48.024;8.774;2023-06-10T14:54:37;4.63;;;3.70;;
51828;SDS011;37881;48.024;8.774;2023-06-10T14:57:04;6.57;;;3.95;;